createdAt,value
2019-03-17T00:01:28.050Z,3.62
2019-03-17T00:03:56.481Z,2.72
2019-03-17T00:06:24.920Z,3.33
2019-03-17T00:08:53.354Z,2.22
2019-03-17T00:11:21.783Z,4.53
2019-03-17T00:13:50.213Z,4.60
2019-03-17T00:16:18.980Z,4.65
2019-03-17T00:18:47.416Z,4.47
2019-03-17T00:21:15.853Z,3.30
2019-03-17T00:23:44.284Z,4.42
2019-03-17T00:26:12.714Z,3.05
2019-03-17T00:28:41.447Z,2.15
2019-03-17T00:31:22.882Z,3.22
2019-03-17T00:33:41.674Z,3.00
2019-03-17T00:36:10.109Z,3.02
2019-03-17T00:38:38.529Z,2.33
2019-03-17T00:41:06.964Z,2.75
2019-03-17T00:43:35.384Z,3.17
2019-03-17T00:46:03.806Z,3.42
2019-03-17T00:48:32.240Z,4.00
2019-03-17T00:51:00.669Z,2.05
2019-03-17T00:53:30.072Z,4.03
2019-03-17T00:55:58.496Z,2.12
2019-03-17T00:58:26.931Z,4.30
2019-03-17T01:00:55.362Z,2.42
2019-03-17T01:03:23.966Z,3.08
2019-03-17T01:05:52.403Z,2.85
2019-03-17T01:08:20.905Z,4.00
2019-03-17T01:10:49.329Z,2.72
2019-03-17T01:13:18.040Z,1.47
2019-03-17T01:15:46.467Z,2.72
2019-03-17T01:18:14.893Z,2.62
2019-03-17T01:20:43.326Z,2.15
2019-03-17T01:23:11.749Z,2.25
2019-03-17T01:25:41.446Z,1.62
2019-03-17T01:28:09.877Z,1.82
2019-03-17T01:30:38.301Z,1.98
2019-03-17T01:33:06.728Z,2.45
2019-03-17T01:35:35.166Z,2.33
2019-03-17T01:38:03.687Z,1.77
2019-03-17T01:40:32.114Z,2.60
2019-03-17T01:43:00.535Z,2.05
2019-03-17T01:45:28.963Z,1.90
2019-03-17T01:47:57.381Z,1.90
2019-03-17T01:50:25.824Z,2.10
2019-03-17T01:52:54.314Z,2.20
2019-03-17T01:55:22.882Z,3.65
2019-03-17T01:57:51.305Z,1.40
2019-03-17T02:00:19.737Z,1.77
2019-03-17T02:02:48.179Z,3.00
2019-03-17T02:05:21.861Z,1.62
2019-03-17T02:07:46.718Z,2.17
2019-03-17T02:10:15.146Z,3.02
2019-03-17T02:12:43.619Z,2.52
2019-03-17T02:15:12.149Z,2.85
2019-03-17T02:17:40.582Z,1.62
2019-03-17T02:20:09.672Z,2.40
2019-03-17T02:22:38.101Z,2.58
2019-03-17T02:25:06.606Z,3.12
2019-03-17T02:27:35.026Z,2.70
2019-03-17T02:30:03.944Z,3.25
2019-03-17T02:32:33.536Z,1.75
2019-03-17T02:35:01.954Z,3.10
2019-03-17T02:37:30.387Z,3.10
2019-03-17T02:39:58.816Z,1.65
2019-03-17T02:42:27.308Z,2.05
2019-03-17T02:44:55.734Z,3.50
2019-03-17T02:47:24.177Z,2.45
2019-03-17T02:49:52.661Z,2.25
2019-03-17T02:52:21.094Z,3.20
2019-03-17T02:54:49.535Z,3.05
2019-03-17T02:57:17.971Z,2.72
2019-03-17T02:59:46.391Z,1.45
2019-03-17T03:02:14.819Z,2.00
2019-03-17T03:04:43.242Z,2.27
2019-03-17T03:07:11.664Z,3.67
2019-03-17T03:09:40.375Z,2.72
2019-03-17T03:12:08.796Z,3.22
2019-03-17T03:14:37.252Z,2.85
2019-03-17T03:17:06.209Z,1.72
2019-03-17T03:19:34.625Z,1.70
2019-03-17T03:22:03.224Z,1.98
2019-03-17T03:24:31.641Z,4.50
2019-03-17T03:27:00.065Z,3.17
2019-03-17T03:29:28.496Z,3.15
2019-03-17T03:31:56.927Z,3.10
2019-03-17T03:34:25.358Z,4.37
2019-03-17T03:36:53.797Z,2.95
2019-03-17T03:39:22.249Z,2.10
2019-03-17T03:41:50.842Z,1.98
2019-03-17T03:44:19.271Z,4.05
2019-03-17T03:46:47.702Z,3.90
2019-03-17T03:49:16.134Z,3.37
2019-03-17T03:51:44.555Z,4.00
2019-03-17T03:54:13.037Z,3.83
2019-03-17T03:56:41.464Z,2.35
2019-03-17T03:59:09.970Z,3.05
2019-03-17T04:01:38.406Z,3.47
2019-03-17T04:04:06.822Z,4.10
2019-03-17T04:06:35.250Z,3.55
2019-03-17T04:09:05.205Z,2.50
2019-03-17T04:11:34.701Z,4.35
2019-03-17T04:14:03.118Z,4.17
2019-03-17T04:16:31.555Z,4.25
2019-03-17T04:18:59.982Z,3.77
2019-03-17T04:21:28.409Z,5.17
2019-03-17T04:23:56.841Z,3.85
2019-03-17T04:26:25.281Z,3.25
2019-03-17T04:28:53.717Z,4.22
2019-03-17T04:31:22.151Z,3.10
2019-03-17T04:33:50.569Z,3.45
2019-03-17T04:36:19.010Z,3.02
2019-03-17T04:38:47.438Z,3.33
2019-03-17T04:41:15.858Z,2.58
2019-03-17T04:43:44.286Z,2.85
2019-03-17T04:46:12.706Z,1.55
2019-03-17T04:48:41.143Z,1.60
2019-03-17T04:51:09.559Z,1.57
2019-03-17T04:53:38.090Z,0.95
2019-03-17T04:56:06.529Z,1.05
2019-03-17T04:58:34.954Z,0.85
2019-03-17T05:01:03.377Z,1.35
2019-03-17T05:03:31.793Z,0.90
2019-03-17T05:06:00.220Z,1.10
2019-03-17T05:08:28.682Z,1.10
2019-03-17T05:10:57.095Z,1.75
2019-03-17T05:13:26.720Z,0.90
2019-03-17T05:15:55.468Z,1.02
2019-03-17T05:18:24.013Z,0.82
2019-03-17T05:20:52.439Z,0.70
2019-03-17T05:23:20.866Z,1.20
2019-03-17T05:25:49.281Z,0.85
2019-03-17T05:28:17.724Z,0.85
2019-03-17T05:30:46.149Z,0.78
2019-03-17T05:33:14.574Z,0.85
2019-03-17T05:35:43.017Z,0.60
2019-03-17T05:38:11.438Z,0.70
2019-03-17T05:40:39.866Z,0.50
2019-03-17T05:43:09.370Z,0.60
2019-03-17T05:45:38.003Z,0.65
2019-03-17T05:48:07.663Z,0.47
2019-03-17T05:50:37.224Z,0.50
2019-03-17T05:53:05.652Z,0.68
2019-03-17T05:55:34.079Z,0.47
2019-03-17T05:58:02.508Z,0.80
2019-03-17T06:00:31.066Z,0.60
2019-03-17T06:02:59.510Z,1.05
2019-03-17T06:05:27.932Z,0.90
2019-03-17T06:07:56.366Z,0.68
2019-03-17T06:10:24.795Z,1.00
2019-03-17T06:12:53.224Z,0.90
2019-03-17T06:15:21.648Z,0.90
2019-03-17T06:17:50.085Z,0.57
2019-03-17T06:20:18.514Z,0.70
2019-03-17T06:22:46.953Z,0.80
2019-03-17T06:25:15.376Z,0.90
2019-03-17T06:27:43.807Z,0.80
2019-03-17T06:30:13.010Z,1.00
2019-03-17T06:32:41.503Z,0.80
2019-03-17T06:35:10.110Z,0.85
2019-03-17T06:37:38.555Z,0.85
2019-03-17T06:40:13.292Z,0.98
2019-03-17T06:42:42.754Z,0.82
2019-03-17T06:45:11.252Z,0.98
2019-03-17T06:47:39.677Z,1.07
2019-03-17T06:50:09.881Z,1.15
2019-03-17T06:52:38.297Z,1.37
2019-03-17T06:55:08.505Z,1.27
2019-03-17T06:57:36.975Z,1.25
2019-03-17T07:00:06.771Z,1.37
2019-03-17T07:02:35.204Z,1.37
2019-03-17T07:05:04.389Z,1.37
2019-03-17T07:07:43.262Z,1.90
2019-03-17T07:10:03.909Z,1.65
2019-03-17T07:12:32.325Z,1.50
2019-03-17T07:15:00.752Z,1.30
2019-03-17T07:17:29.187Z,2.33
2019-03-17T07:19:57.616Z,2.45
2019-03-17T07:22:26.706Z,2.72
2019-03-17T07:24:55.154Z,2.52
2019-03-17T07:27:23.569Z,2.45
2019-03-17T07:29:52.003Z,1.95
2019-03-17T07:32:20.427Z,2.20
2019-03-17T07:34:48.937Z,1.37
2019-03-17T07:37:17.378Z,1.70
2019-03-17T07:39:45.796Z,1.00
2019-03-17T07:42:14.224Z,1.52
2019-03-17T07:44:42.663Z,1.40
2019-03-17T07:47:11.097Z,1.05
2019-03-17T07:49:40.697Z,1.20
2019-03-17T07:52:09.131Z,1.55
2019-03-17T07:54:37.560Z,0.88
2019-03-17T07:57:05.999Z,0.60
2019-03-17T07:59:34.421Z,0.50
2019-03-17T08:02:03.058Z,0.70
2019-03-17T08:04:42.045Z,0.50
2019-03-17T08:07:01.685Z,0.72
2019-03-17T08:09:30.873Z,0.60
2019-03-17T08:11:59.301Z,0.50
2019-03-17T08:14:27.721Z,0.45
2019-03-17T08:16:56.153Z,0.30
2019-03-17T08:19:24.576Z,0.78
2019-03-17T08:21:53.064Z,0.70
2019-03-17T08:24:21.495Z,0.42
2019-03-17T08:26:50.227Z,0.70
2019-03-17T08:29:19.344Z,0.50
2019-03-17T08:31:47.901Z,0.40
2019-03-17T08:34:16.332Z,0.85
2019-03-17T08:36:44.766Z,0.55
2019-03-17T08:39:13.197Z,0.80
2019-03-17T08:41:41.622Z,0.60
2019-03-17T08:44:10.042Z,0.55
2019-03-17T08:46:38.469Z,0.68
2019-03-17T08:49:08.435Z,0.60
2019-03-17T08:51:38.658Z,0.45
2019-03-17T08:54:07.376Z,0.40
2019-03-17T08:56:35.801Z,0.70
2019-03-17T08:59:04.226Z,0.70
2019-03-17T09:01:32.642Z,0.82
2019-03-17T09:04:01.077Z,0.90
2019-03-17T09:06:29.531Z,0.50
2019-03-17T09:08:57.948Z,0.45
2019-03-17T09:11:26.379Z,0.42
2019-03-17T09:13:56.480Z,0.70
2019-03-17T09:16:24.894Z,0.70
2019-03-17T09:18:53.330Z,0.80
2019-03-17T09:21:21.754Z,0.47
2019-03-17T09:23:50.429Z,0.50
2019-03-17T09:26:19.127Z,0.78
2019-03-17T09:28:47.550Z,1.00
2019-03-17T09:31:15.970Z,1.00
2019-03-17T09:33:44.393Z,0.90
2019-03-17T09:36:14.007Z,1.17
2019-03-17T09:38:47.178Z,0.90
2019-03-17T09:41:12.597Z,1.77
2019-03-17T09:43:41.036Z,1.37
2019-03-17T09:46:09.462Z,1.27
2019-03-17T09:48:38.952Z,1.80
2019-03-17T09:51:07.401Z,1.20
2019-03-17T09:53:35.832Z,1.20
2019-03-17T09:56:04.242Z,0.82
2019-03-17T09:58:32.665Z,1.15
2019-03-17T10:01:01.148Z,1.82
2019-03-17T10:03:29.575Z,0.82
2019-03-17T10:05:58.012Z,1.70
2019-03-17T10:08:26.439Z,1.47
2019-03-17T10:10:55.942Z,0.78
2019-03-17T10:13:25.764Z,1.05
2019-03-17T10:15:54.235Z,0.93
2019-03-17T10:18:22.686Z,1.32
2019-03-17T10:20:51.114Z,1.17
2019-03-17T10:23:21.174Z,1.07
2019-03-17T10:25:49.606Z,1.12
2019-03-17T10:28:18.245Z,1.50
2019-03-17T10:30:46.675Z,0.90
2019-03-17T10:33:15.101Z,0.62
2019-03-17T10:35:43.529Z,1.50
2019-03-17T10:38:11.945Z,1.27
2019-03-17T10:40:40.377Z,1.50
2019-03-17T10:43:10.341Z,1.40
2019-03-17T10:45:38.772Z,1.67
2019-03-17T10:48:07.199Z,1.75
2019-03-17T10:50:35.622Z,1.70
2019-03-17T10:53:05.803Z,0.90
2019-03-17T10:55:34.237Z,0.93
2019-03-17T10:58:02.677Z,0.93
2019-03-17T11:00:31.116Z,1.10
2019-03-17T11:02:59.550Z,0.93
2019-03-17T11:05:27.968Z,0.78
2019-03-17T11:07:56.398Z,0.72
2019-03-17T11:10:25.996Z,1.20
2019-03-17T11:12:54.433Z,1.00
2019-03-17T11:15:23.413Z,0.88
2019-03-17T11:17:55.286Z,1.37
2019-03-17T11:20:24.277Z,1.45
2019-03-17T11:22:55.065Z,1.07
2019-03-17T11:25:24.506Z,1.02
2019-03-17T11:28:08.744Z,0.62
2019-03-17T11:30:41.504Z,1.00
2019-03-17T11:33:15.301Z,1.25
2019-03-17T11:35:44.962Z,1.50
2019-03-17T11:38:14.829Z,1.40
2019-03-17T11:40:45.703Z,1.40
2019-03-17T11:43:17.907Z,1.12
2019-03-17T11:45:46.321Z,1.50
2019-03-17T11:48:14.749Z,0.90
2019-03-17T11:50:44.521Z,1.12
2019-03-17T11:53:17.088Z,1.25
2019-03-17T11:55:45.613Z,1.30
2019-03-17T11:58:14.846Z,0.98
2019-03-17T12:00:44.771Z,0.95
2019-03-17T12:03:15.225Z,1.50
2019-03-17T12:05:44.820Z,1.70
2019-03-17T12:08:18.152Z,1.15
2019-03-17T12:10:46.965Z,3.30
2019-03-17T12:13:18.462Z,1.27
2019-03-17T12:15:53.466Z,1.32
2019-03-17T12:18:25.027Z,1.05
2019-03-17T12:20:58.440Z,1.42
2019-03-17T12:23:28.690Z,1.50
2019-03-17T12:25:57.114Z,1.25
2019-03-17T12:28:30.543Z,1.22
2019-03-17T12:31:16.943Z,1.22
2019-03-17T12:33:41.777Z,1.42
2019-03-17T12:36:11.481Z,1.05
2019-03-17T12:38:39.918Z,1.00
2019-03-17T12:41:08.352Z,1.27
2019-03-17T12:43:37.074Z,1.10
2019-03-17T12:46:05.503Z,1.07
2019-03-17T12:48:34.169Z,1.12
2019-03-17T12:51:02.565Z,0.75
2019-03-17T12:53:31.074Z,1.02
2019-03-17T12:55:59.560Z,1.20
2019-03-17T12:58:28.259Z,1.00
2019-03-17T13:00:57.654Z,1.00
2019-03-17T13:03:27.258Z,1.02
2019-03-17T13:05:55.939Z,0.80
2019-03-17T13:08:24.394Z,0.60
2019-03-17T13:10:52.814Z,1.10
2019-03-17T13:13:21.241Z,0.82
2019-03-17T13:15:49.668Z,0.75
2019-03-17T13:18:18.173Z,1.00
2019-03-17T13:20:46.602Z,1.37
2019-03-17T13:23:15.029Z,0.70
2019-03-17T13:25:43.453Z,0.90
2019-03-17T13:28:11.870Z,0.80
2019-03-17T13:30:40.309Z,1.07
2019-03-17T13:33:08.809Z,0.93
2019-03-17T13:35:37.303Z,1.00
2019-03-17T13:38:06.716Z,2.12
2019-03-17T13:40:35.125Z,0.80
2019-03-17T13:43:03.635Z,1.02
2019-03-17T13:45:32.070Z,1.10
2019-03-17T13:48:00.490Z,0.78
2019-03-17T13:50:28.926Z,1.00
2019-03-17T13:52:57.350Z,0.90
2019-03-17T13:55:25.773Z,0.68
2019-03-17T13:57:58.868Z,1.40
2019-03-17T14:00:27.294Z,1.20
2019-03-17T14:02:55.733Z,0.82
2019-03-17T14:05:24.159Z,1.10
2019-03-17T14:07:52.582Z,0.95
2019-03-17T14:10:21.017Z,1.12
2019-03-17T14:12:49.446Z,1.10
2019-03-17T14:15:17.873Z,0.72
2019-03-17T14:17:46.298Z,1.07
2019-03-17T14:20:16.915Z,0.93
2019-03-17T14:22:45.348Z,0.93
2019-03-17T14:25:17.789Z,0.80
2019-03-17T14:27:46.226Z,0.90
2019-03-17T14:30:15.810Z,1.25
2019-03-17T14:32:45.654Z,1.27
2019-03-17T14:35:14.074Z,1.07
2019-03-17T14:37:42.815Z,1.10
2019-03-17T14:40:14.483Z,0.95
2019-03-17T14:42:43.570Z,0.40
2019-03-17T14:45:13.089Z,0.80
2019-03-17T14:47:41.524Z,1.02
2019-03-17T14:50:11.715Z,0.80
2019-03-17T14:52:40.146Z,0.65
2019-03-17T14:55:08.561Z,1.57
2019-03-17T14:57:36.997Z,1.00
2019-03-17T15:00:06.957Z,0.80
2019-03-17T15:02:35.476Z,1.20
2019-03-17T15:05:04.750Z,1.07
2019-03-17T15:07:33.178Z,0.90
2019-03-17T15:10:02.066Z,1.12
2019-03-17T15:12:30.490Z,1.10
2019-03-17T15:14:58.915Z,0.85
2019-03-17T15:17:27.345Z,0.75
2019-03-17T15:19:59.027Z,0.80
2019-03-17T15:22:27.465Z,0.57
2019-03-17T15:24:55.954Z,0.60
2019-03-17T15:27:24.394Z,0.68
2019-03-17T15:29:53.882Z,0.90
2019-03-17T15:32:22.307Z,1.02
2019-03-17T15:34:50.731Z,1.30
2019-03-17T15:37:19.368Z,0.90
2019-03-17T15:39:48.097Z,1.12
2019-03-17T15:42:19.391Z,0.85
2019-03-17T15:44:47.759Z,1.22
2019-03-17T15:47:16.178Z,1.27
2019-03-17T15:49:46.912Z,1.27
2019-03-17T15:52:15.653Z,0.90
2019-03-17T15:54:44.087Z,2.52
2019-03-17T15:57:12.516Z,1.10
2019-03-17T15:59:40.948Z,0.90
2019-03-17T16:02:10.412Z,1.30
2019-03-17T16:04:38.825Z,1.37
2019-03-17T16:07:07.257Z,1.22
2019-03-17T16:09:35.673Z,1.22
2019-03-17T16:12:04.099Z,1.35
2019-03-17T16:14:32.513Z,1.55
2019-03-17T16:17:00.941Z,1.57
2019-03-17T16:19:29.361Z,1.92
2019-03-17T16:21:57.785Z,1.50
2019-03-17T16:24:26.215Z,1.17
2019-03-17T16:26:54.634Z,1.32
2019-03-17T16:29:23.062Z,1.62
2019-03-17T16:31:51.489Z,1.62
2019-03-17T16:34:21.181Z,1.22
2019-03-17T16:36:49.610Z,1.32
2019-03-17T16:39:18.045Z,2.17
2019-03-17T16:41:46.502Z,1.90
2019-03-17T16:44:14.937Z,1.27
2019-03-17T16:46:43.362Z,1.25
2019-03-17T16:49:11.790Z,1.67
2019-03-17T16:51:40.214Z,1.47
2019-03-17T16:54:08.646Z,1.60
2019-03-17T16:56:37.083Z,1.80
2019-03-17T16:59:05.503Z,1.98
2019-03-17T17:01:33.937Z,2.08
2019-03-17T17:04:02.693Z,1.82
2019-03-17T17:06:31.118Z,1.40
2019-03-17T17:08:59.545Z,1.42
2019-03-17T17:11:28.041Z,2.20
2019-03-17T17:13:56.477Z,1.57
2019-03-17T17:16:24.909Z,2.42
2019-03-17T17:18:55.237Z,1.72
2019-03-17T17:21:23.665Z,2.50
2019-03-17T17:23:52.139Z,1.85
2019-03-17T17:26:20.549Z,2.45
2019-03-17T17:28:48.982Z,1.15
2019-03-17T17:31:17.397Z,1.05
2019-03-17T17:33:46.192Z,0.90
2019-03-17T17:36:14.707Z,1.20
2019-03-17T17:38:43.121Z,1.47
2019-03-17T17:41:11.575Z,0.95
2019-03-17T17:43:40.063Z,1.35
2019-03-17T17:46:08.521Z,1.05
2019-03-17T17:48:36.994Z,1.20
2019-03-17T17:51:05.429Z,1.25
2019-03-17T17:53:33.845Z,1.05
2019-03-17T17:56:02.273Z,0.72
2019-03-17T17:58:30.724Z,1.75
2019-03-17T18:00:59.153Z,1.45
2019-03-17T18:03:27.591Z,0.85
2019-03-17T18:05:56.045Z,1.50
2019-03-17T18:08:24.490Z,1.27
2019-03-17T18:10:52.936Z,1.10
2019-03-17T18:13:21.688Z,1.00
2019-03-17T18:15:50.113Z,1.22
2019-03-17T18:18:18.541Z,1.25
2019-03-17T18:20:46.965Z,1.17
2019-03-17T18:23:18.317Z,1.25
2019-03-17T18:25:45.572Z,1.37
2019-03-17T18:28:14.013Z,1.65
2019-03-17T18:30:42.428Z,1.40
2019-03-17T18:33:10.857Z,1.20
2019-03-17T18:35:39.286Z,1.65
2019-03-17T18:38:07.785Z,1.25
2019-03-17T18:40:36.208Z,1.70
2019-03-17T18:43:05.093Z,2.55
2019-03-17T18:45:33.517Z,1.52
2019-03-17T18:48:03.018Z,1.15
2019-03-17T18:50:31.441Z,1.52
2019-03-17T18:52:59.874Z,1.72
2019-03-17T18:55:28.297Z,1.02
2019-03-17T18:57:56.726Z,1.22
2019-03-17T19:00:25.518Z,1.57
2019-03-17T19:02:53.959Z,1.22
2019-03-17T19:05:22.394Z,1.30
2019-03-17T19:07:50.817Z,1.45
2019-03-17T19:10:19.926Z,1.30
2019-03-17T19:12:48.342Z,1.22
2019-03-17T19:15:17.640Z,1.55
2019-03-17T19:17:46.061Z,1.50
2019-03-17T19:20:15.964Z,1.47
2019-03-17T19:22:44.371Z,1.90
2019-03-17T19:25:13.861Z,1.65
2019-03-17T19:27:42.282Z,1.12
2019-03-17T19:30:15.320Z,1.52
2019-03-17T19:32:43.831Z,1.40
2019-03-17T19:35:12.332Z,1.37
2019-03-17T19:37:40.762Z,1.40
2019-03-17T19:40:10.720Z,1.20
2019-03-17T19:42:39.153Z,1.20
2019-03-17T19:45:07.857Z,1.70
2019-03-17T19:47:38.242Z,2.02
2019-03-17T19:50:08.141Z,1.52
2019-03-17T19:52:36.561Z,2.25
2019-03-17T19:55:05.461Z,1.42
2019-03-17T19:57:33.877Z,1.37
2019-03-17T20:00:02.308Z,1.50
2019-03-17T20:02:30.810Z,1.12
2019-03-17T20:04:59.242Z,1.45
2019-03-17T20:07:27.665Z,1.40
2019-03-17T20:09:56.081Z,1.50
2019-03-17T20:12:24.798Z,1.07
2019-03-17T20:14:53.214Z,1.15
2019-03-17T20:17:22.613Z,1.50
2019-03-17T20:19:52.105Z,1.40
2019-03-17T20:22:20.533Z,1.70
2019-03-17T20:24:48.958Z,2.08
2019-03-17T20:27:17.389Z,2.02
2019-03-17T20:29:45.825Z,1.75
2019-03-17T20:32:14.596Z,1.90
2019-03-17T20:34:43.010Z,1.87
2019-03-17T20:37:11.435Z,2.17
2019-03-17T20:39:40.144Z,2.00
2019-03-17T20:42:08.576Z,2.37
2019-03-17T20:44:37.133Z,2.22
2019-03-17T20:47:07.072Z,2.60
2019-03-17T20:49:35.499Z,2.58
2019-03-17T20:52:03.990Z,2.27
2019-03-17T20:54:32.413Z,1.77
2019-03-17T20:57:00.967Z,2.33
2019-03-17T20:59:29.914Z,3.05
2019-03-17T21:01:58.377Z,3.20
2019-03-17T21:04:26.889Z,3.50
2019-03-17T21:06:55.395Z,3.33
2019-03-17T21:09:23.835Z,3.05
2019-03-17T21:11:52.244Z,2.58
2019-03-17T21:14:20.678Z,3.02
2019-03-17T21:16:49.102Z,3.47
2019-03-17T21:19:17.541Z,2.45
2019-03-17T21:21:45.961Z,3.42
2019-03-17T21:24:14.386Z,3.60
2019-03-17T21:26:42.809Z,2.80
2019-03-17T21:29:11.242Z,2.42
2019-03-17T21:31:39.743Z,2.58
2019-03-17T21:34:08.162Z,2.45
2019-03-17T21:36:36.602Z,1.80
2019-03-17T21:39:06.187Z,2.42
2019-03-17T21:41:34.624Z,1.85
2019-03-17T21:44:03.048Z,1.72
2019-03-17T21:46:32.740Z,1.70
2019-03-17T21:49:01.172Z,1.90
2019-03-17T21:51:29.660Z,2.92
2019-03-17T21:53:58.159Z,1.90
2019-03-17T21:56:26.585Z,2.30
2019-03-17T21:58:55.015Z,2.77
2019-03-17T22:01:23.441Z,2.37
2019-03-17T22:03:51.871Z,1.70
2019-03-17T22:06:20.286Z,2.02
2019-03-17T22:08:48.770Z,2.10
2019-03-17T22:11:17.215Z,1.77
2019-03-17T22:13:45.643Z,2.27
2019-03-17T22:16:14.078Z,1.57
2019-03-17T22:18:42.504Z,1.40
2019-03-17T22:21:12.097Z,1.65
2019-03-17T22:23:40.585Z,1.60
2019-03-17T22:26:09.013Z,1.12
2019-03-17T22:28:37.432Z,1.15
2019-03-17T22:31:05.932Z,1.45
2019-03-17T22:33:34.362Z,1.87
2019-03-17T22:36:02.799Z,1.37
2019-03-17T22:38:31.221Z,1.82
2019-03-17T22:40:59.656Z,1.92
2019-03-17T22:43:28.088Z,1.57
2019-03-17T22:45:56.519Z,1.92
2019-03-17T22:48:24.938Z,1.52
2019-03-17T22:50:53.369Z,2.08
2019-03-17T22:53:21.798Z,2.02
2019-03-17T22:55:50.467Z,1.45
2019-03-17T22:58:18.889Z,1.40
2019-03-17T23:00:47.789Z,1.75
2019-03-17T23:03:16.285Z,1.60
2019-03-17T23:05:44.716Z,1.87
2019-03-17T23:08:13.147Z,2.00
2019-03-17T23:10:41.570Z,0.98
2019-03-17T23:13:09.986Z,2.12
2019-03-17T23:15:38.417Z,1.55
2019-03-17T23:18:06.841Z,1.00
2019-03-17T23:20:35.265Z,1.95
2019-03-17T23:23:03.719Z,2.20
2019-03-17T23:25:32.482Z,1.57
2019-03-17T23:28:00.919Z,2.08
2019-03-17T23:30:29.426Z,1.30
2019-03-17T23:32:57.862Z,1.80
2019-03-17T23:35:26.281Z,2.45
2019-03-17T23:37:54.726Z,2.22
2019-03-17T23:40:23.162Z,2.67
2019-03-17T23:42:51.584Z,2.45
2019-03-17T23:45:20.022Z,1.70
2019-03-17T23:47:48.451Z,2.12
2019-03-17T23:50:16.880Z,2.40
2019-03-17T23:52:45.300Z,2.17
2019-03-17T23:55:14.974Z,2.30
2019-03-17T23:57:43.401Z,2.30
